createdAt,value
2023-01-21T00:01:10.247Z,2.20
2023-01-21T00:03:41.475Z,1.92
2023-01-21T00:06:18.483Z,1.73
2023-01-21T00:08:48.631Z,1.42
2023-01-21T00:11:18.441Z,1.60
2023-01-21T00:13:49.670Z,1.63
2023-01-21T00:16:20.366Z,1.50
2023-01-21T00:18:52.048Z,2.17
2023-01-21T00:21:22.258Z,1.90
2023-01-21T00:23:52.383Z,1.60
2023-01-21T00:26:24.415Z,2.17
2023-01-21T00:28:56.286Z,2.58
2023-01-21T00:31:27.248Z,1.73
2023-01-21T00:33:57.973Z,2.00
2023-01-21T00:36:30.888Z,1.92
2023-01-21T00:39:01.815Z,1.70
2023-01-21T00:41:31.654Z,1.92
2023-01-21T00:44:01.973Z,2.28
2023-01-21T00:46:32.711Z,1.65
2023-01-21T00:49:03.655Z,1.70
2023-01-21T00:51:33.859Z,2.00
2023-01-21T00:54:04.110Z,1.98
2023-01-21T00:56:33.867Z,1.92
2023-01-21T00:59:04.346Z,2.00
2023-01-21T01:01:38.922Z,1.90
2023-01-21T01:04:09.796Z,1.30
2023-01-21T01:06:39.760Z,2.15
2023-01-21T01:09:11.640Z,1.50
2023-01-21T01:11:42.191Z,1.83
2023-01-21T01:14:12.844Z,1.70
2023-01-21T01:16:43.671Z,2.10
2023-01-21T01:22:14.185Z,2.60
2023-01-21T01:24:45.805Z,1.50
2023-01-21T01:27:15.983Z,1.80
2023-01-21T01:29:48.260Z,1.95
2023-01-21T01:32:18.635Z,2.10
2023-01-21T01:34:50.109Z,1.90
2023-01-21T01:37:22.020Z,1.75
2023-01-21T01:39:58.917Z,1.77
2023-01-21T01:42:31.829Z,1.80
2023-01-21T01:45:04.504Z,1.90
2023-01-21T01:47:38.456Z,2.40
2023-01-21T01:50:12.272Z,2.28
2023-01-21T01:52:45.039Z,2.10
2023-01-21T01:55:17.516Z,2.30
2023-01-21T01:57:53.100Z,2.40
2023-01-21T02:03:14.451Z,2.30
2023-01-21T02:05:46.666Z,2.10
2023-01-21T02:08:19.107Z,2.15
2023-01-21T02:10:57.772Z,2.65
2023-01-21T02:13:30.843Z,2.55
2023-01-21T02:16:01.100Z,2.50
2023-01-21T02:18:49.869Z,2.45
2023-01-21T02:21:35.682Z,3.10
2023-01-21T02:24:35.962Z,2.50
2023-01-21T02:27:18.115Z,2.10
2023-01-21T02:30:35.602Z,2.85
2023-01-21T02:33:33.570Z,2.53
2023-01-21T02:36:18.190Z,2.28
2023-01-21T02:39:12.762Z,3.08
2023-01-21T02:42:07.248Z,3.15
2023-01-21T02:44:44.345Z,3.03
2023-01-21T02:47:32.721Z,2.72
2023-01-21T02:50:10.191Z,2.95
2023-01-21T02:52:40.902Z,2.70
2023-01-21T02:55:18.336Z,3.28
2023-01-21T02:57:52.151Z,2.97
2023-01-21T03:00:31.805Z,3.05
2023-01-21T03:03:13.997Z,3.70
2023-01-21T03:05:52.318Z,2.92
2023-01-21T03:08:24.423Z,3.38
2023-01-21T03:11:16.397Z,4.25
2023-01-21T03:14:15.271Z,3.80
2023-01-21T03:17:00.459Z,4.30
2023-01-21T03:19:42.153Z,3.45
2023-01-21T03:22:21.436Z,4.03
2023-01-21T03:24:56.299Z,4.53
2023-01-21T03:27:29.759Z,4.40
2023-01-21T03:30:05.229Z,4.63
2023-01-21T03:32:38.546Z,4.22
2023-01-21T03:35:12.335Z,4.30
2023-01-21T03:37:59.481Z,4.97
2023-01-21T03:40:36.861Z,5.00
2023-01-21T03:43:09.597Z,5.10
2023-01-21T03:46:06.491Z,4.45
2023-01-21T03:48:53.546Z,4.35
2023-01-21T03:51:29.010Z,4.93
2023-01-21T03:54:01.327Z,5.43
2023-01-21T03:56:33.028Z,5.03
2023-01-21T03:59:04.620Z,5.53
2023-01-21T04:01:34.530Z,5.20
2023-01-21T04:04:04.384Z,4.75
2023-01-21T04:06:34.709Z,5.30
2023-01-21T04:09:08.994Z,5.35
2023-01-21T04:11:40.000Z,5.80
2023-01-21T04:14:10.390Z,5.00
2023-01-21T04:16:40.111Z,5.30
2023-01-21T04:19:10.374Z,6.32
2023-01-21T04:21:40.860Z,5.50
2023-01-21T04:24:11.768Z,5.85
2023-01-21T04:26:41.499Z,5.18
2023-01-21T04:29:11.921Z,6.45
2023-01-21T04:31:41.789Z,5.18
2023-01-21T04:34:12.712Z,4.90
2023-01-21T04:36:42.734Z,5.43
2023-01-21T04:39:13.016Z,5.10
2023-01-21T04:41:43.418Z,6.07
2023-01-21T04:44:13.813Z,5.20
2023-01-21T04:46:44.023Z,6.20
2023-01-21T04:49:14.609Z,5.25
2023-01-21T04:51:44.324Z,6.35
2023-01-21T04:54:14.572Z,5.63
2023-01-21T04:56:44.803Z,5.50
2023-01-21T04:59:18.621Z,5.55
2023-01-21T05:01:48.847Z,5.55
2023-01-21T05:04:18.658Z,6.28
2023-01-21T05:06:48.826Z,6.30
2023-01-21T05:09:18.552Z,6.68
2023-01-21T05:11:50.341Z,6.78
2023-01-21T05:14:22.081Z,7.18
2023-01-21T05:16:52.102Z,7.40
2023-01-21T05:19:22.434Z,6.57
2023-01-21T05:21:53.719Z,6.78
2023-01-21T05:24:24.271Z,7.32
2023-01-21T05:26:54.542Z,6.20
2023-01-21T05:29:24.361Z,7.13
2023-01-21T05:31:54.903Z,7.50
2023-01-21T05:34:25.364Z,6.45
2023-01-21T05:36:56.040Z,7.90
2023-01-21T05:39:26.238Z,7.03
2023-01-21T05:41:55.982Z,7.15
2023-01-21T05:44:27.403Z,7.72
2023-01-21T05:46:58.791Z,8.02
2023-01-21T05:49:29.195Z,8.15
2023-01-21T05:51:59.574Z,7.15
2023-01-21T05:54:29.327Z,6.65
2023-01-21T05:56:59.740Z,6.50
2023-01-21T05:59:31.415Z,6.28
2023-01-21T06:02:02.323Z,6.85
2023-01-21T06:04:32.087Z,7.70
2023-01-21T06:07:02.433Z,7.55
2023-01-21T06:09:32.720Z,6.53
2023-01-21T06:12:03.460Z,7.22
2023-01-21T06:14:33.470Z,6.47
2023-01-21T06:17:04.139Z,7.75
2023-01-21T06:19:34.572Z,7.07
2023-01-21T06:22:05.436Z,7.28
2023-01-21T06:24:35.711Z,6.40
2023-01-21T06:27:06.118Z,6.63
2023-01-21T06:29:35.853Z,6.78
2023-01-21T06:35:03.961Z,7.18
2023-01-21T06:37:34.832Z,7.45
2023-01-21T06:40:04.905Z,7.35
2023-01-21T06:42:35.074Z,7.28
2023-01-21T06:45:05.714Z,6.82
2023-01-21T06:47:37.333Z,6.18
2023-01-21T06:50:08.273Z,6.50
2023-01-21T06:52:38.497Z,6.88
2023-01-21T06:55:08.880Z,7.25
2023-01-21T06:57:40.748Z,7.03
2023-01-21T07:00:12.523Z,6.60
2023-01-21T07:02:43.815Z,6.03
2023-01-21T07:05:16.553Z,6.22
2023-01-21T07:07:47.306Z,6.32
2023-01-21T07:10:18.050Z,7.00
2023-01-21T07:12:48.310Z,5.95
2023-01-21T07:15:18.676Z,7.38
2023-01-21T07:17:50.337Z,6.88
2023-01-21T07:20:20.903Z,6.10
2023-01-21T07:22:51.968Z,5.90
2023-01-21T07:25:22.293Z,7.25
2023-01-21T07:27:52.671Z,6.10
2023-01-21T07:30:23.997Z,5.93
2023-01-21T07:32:54.524Z,5.93
2023-01-21T07:35:24.664Z,6.15
2023-01-21T07:37:55.285Z,6.57
2023-01-21T07:40:26.652Z,6.72
2023-01-21T07:42:57.956Z,5.30
2023-01-21T07:45:29.403Z,6.43
2023-01-21T07:48:00.836Z,5.57
2023-01-21T07:50:32.145Z,6.50
2023-01-21T07:53:02.884Z,6.47
2023-01-21T07:55:33.456Z,6.15
2023-01-21T07:58:03.543Z,6.32
2023-01-21T08:00:35.833Z,6.18
2023-01-21T08:03:06.314Z,6.40
2023-01-21T08:05:37.023Z,5.53
2023-01-21T08:08:07.368Z,5.22
2023-01-21T08:10:37.342Z,5.05
2023-01-21T08:13:09.139Z,5.78
2023-01-21T08:15:39.346Z,6.07
2023-01-21T08:18:09.056Z,6.80
2023-01-21T08:20:40.378Z,5.13
2023-01-21T08:23:10.689Z,6.53
2023-01-21T08:25:41.522Z,6.60
2023-01-21T08:28:11.260Z,6.60
2023-01-21T08:30:41.334Z,5.22
2023-01-21T08:33:11.884Z,5.93
2023-01-21T08:35:43.960Z,7.00
2023-01-21T08:38:14.058Z,5.93
2023-01-21T08:40:43.752Z,7.20
2023-01-21T08:43:13.903Z,6.75
2023-01-21T08:45:45.332Z,6.57
2023-01-21T08:48:15.867Z,5.40
2023-01-21T08:50:46.574Z,6.60
2023-01-21T08:53:16.316Z,5.25
2023-01-21T08:55:46.547Z,6.30
2023-01-21T08:58:17.849Z,6.10
2023-01-21T09:00:49.366Z,5.43
2023-01-21T09:03:20.796Z,5.65
2023-01-21T09:05:55.331Z,5.50
2023-01-21T09:08:25.788Z,5.60
2023-01-21T09:11:03.397Z,5.35
2023-01-21T09:13:38.557Z,6.10
2023-01-21T09:16:13.738Z,6.07
2023-01-21T09:18:44.662Z,5.75
2023-01-21T09:21:15.607Z,5.20
2023-01-21T09:23:46.627Z,5.32
2023-01-21T09:26:19.022Z,6.88
2023-01-21T09:28:54.983Z,5.90
2023-01-21T09:31:27.271Z,5.35
2023-01-21T09:34:02.318Z,6.55
2023-01-21T09:36:34.600Z,5.20
2023-01-21T09:39:06.616Z,5.78
2023-01-21T09:41:57.678Z,5.22
2023-01-21T09:44:33.945Z,5.45
2023-01-21T09:47:22.234Z,5.30
2023-01-21T09:50:04.629Z,5.25
2023-01-21T09:52:55.498Z,5.80
2023-01-21T09:55:42.888Z,4.82
2023-01-21T09:58:22.439Z,4.43
2023-01-21T10:01:28.825Z,4.18
2023-01-21T10:04:05.409Z,3.40
2023-01-21T10:06:48.306Z,3.03
2023-01-21T10:09:35.724Z,2.67
2023-01-21T10:12:12.330Z,2.85
2023-01-21T10:15:20.029Z,5.47
2023-01-21T10:18:14.057Z,3.42
2023-01-21T10:20:57.528Z,2.70
2023-01-21T10:23:42.903Z,2.13
2023-01-21T10:26:16.084Z,2.25
2023-01-21T10:28:52.087Z,2.83
2023-01-21T10:31:29.500Z,2.35
2023-01-21T10:37:22.125Z,2.10
2023-01-21T10:40:01.364Z,1.60
2023-01-21T10:42:46.405Z,1.67
2023-01-21T10:45:22.844Z,2.00
2023-01-21T10:48:01.937Z,2.30
2023-01-21T10:50:53.525Z,4.97
2023-01-21T10:53:51.849Z,1.80
2023-01-21T10:56:39.971Z,3.67
2023-01-21T10:59:22.219Z,2.30
2023-01-21T11:02:05.756Z,1.77
2023-01-21T11:04:39.549Z,1.40
2023-01-21T11:07:13.598Z,1.35
2023-01-21T11:09:49.150Z,1.30
2023-01-21T11:12:25.108Z,1.38
2023-01-21T11:14:59.649Z,1.90
2023-01-21T11:17:38.671Z,1.20
2023-01-21T11:20:36.754Z,1.30
2023-01-21T11:23:08.509Z,1.27
2023-01-21T11:25:44.838Z,1.45
2023-01-21T11:28:26.193Z,1.10
2023-01-21T11:33:45.595Z,1.77
2023-01-21T11:36:21.746Z,1.17
2023-01-21T11:39:24.622Z,1.33
2023-01-21T11:41:59.647Z,1.20
2023-01-21T11:44:29.993Z,1.10
2023-01-21T11:47:01.435Z,1.05
2023-01-21T11:49:34.592Z,1.10
2023-01-21T11:52:20.901Z,1.30
2023-01-21T11:54:52.462Z,1.08
2023-01-21T11:57:34.565Z,1.05
2023-01-21T12:00:26.863Z,1.23
2023-01-21T12:03:04.110Z,1.20
2023-01-21T12:05:47.678Z,0.82
2023-01-21T12:08:31.697Z,1.10
2023-01-21T12:11:04.807Z,1.08
2023-01-21T12:13:47.944Z,1.00
2023-01-21T12:16:24.394Z,1.10
2023-01-21T12:19:19.623Z,1.13
2023-01-21T12:22:22.599Z,1.20
2023-01-21T12:25:04.547Z,0.77
2023-01-21T12:28:01.670Z,0.95
2023-01-21T12:30:58.619Z,1.08
2023-01-21T12:33:32.048Z,1.10
2023-01-21T12:36:41.405Z,1.02
2023-01-21T12:39:21.342Z,0.93
2023-01-21T12:42:15.723Z,0.82
2023-01-21T12:45:01.280Z,1.85
2023-01-21T12:48:01.861Z,1.95
2023-01-21T12:50:57.645Z,1.00
2023-01-21T12:53:55.180Z,1.17
2023-01-21T12:56:38.331Z,0.93
2023-01-21T12:59:22.521Z,1.30
2023-01-21T13:02:15.391Z,1.10
2023-01-21T13:04:55.182Z,0.95
2023-01-21T13:07:50.536Z,1.10
2023-01-21T13:10:39.609Z,1.10
2023-01-21T13:13:25.488Z,1.02
2023-01-21T13:16:00.279Z,1.15
2023-01-21T13:18:36.110Z,1.20
2023-01-21T13:21:33.754Z,1.65
2023-01-21T13:24:20.490Z,1.23
2023-01-21T13:27:23.004Z,1.10
2023-01-21T13:30:17.415Z,1.33
2023-01-21T13:32:57.533Z,1.67
2023-01-21T13:35:35.543Z,1.80
2023-01-21T13:38:40.691Z,1.42
2023-01-21T13:41:29.485Z,1.35
2023-01-21T13:43:59.722Z,1.30
2023-01-21T13:46:53.761Z,1.38
2023-01-21T13:49:58.274Z,1.50
2023-01-21T13:52:39.249Z,1.60
2023-01-21T13:55:28.565Z,1.67
2023-01-21T13:58:15.082Z,1.27
2023-01-21T14:01:21.842Z,1.27
2023-01-21T14:04:19.745Z,1.42
2023-01-21T14:07:01.596Z,1.60
2023-01-21T14:09:41.306Z,2.05
2023-01-21T14:12:26.675Z,1.65
2023-01-21T14:15:41.958Z,1.80
2023-01-21T14:19:03.850Z,1.70
2023-01-21T14:21:42.802Z,1.20
2023-01-21T14:24:29.587Z,1.63
2023-01-21T14:27:32.916Z,2.70
2023-01-21T14:30:25.610Z,1.42
2023-01-21T14:33:05.109Z,4.90
2023-01-21T14:35:43.424Z,1.45
2023-01-21T14:39:05.834Z,1.70
2023-01-21T14:41:56.062Z,1.40
2023-01-21T14:45:06.499Z,1.70
2023-01-21T14:47:36.629Z,1.50
2023-01-21T14:50:09.082Z,1.40
2023-01-21T14:52:49.050Z,1.17
2023-01-21T14:55:29.737Z,1.30
2023-01-21T14:58:02.820Z,1.25
2023-01-21T15:00:36.262Z,1.42
2023-01-21T15:03:29.646Z,1.52
2023-01-21T15:06:05.442Z,2.25
2023-01-21T15:08:46.126Z,1.80
2023-01-21T15:11:45.561Z,1.42
2023-01-21T15:14:23.693Z,1.80
2023-01-21T15:16:54.573Z,1.23
2023-01-21T15:19:34.190Z,1.35
2023-01-21T15:22:05.139Z,1.27
2023-01-21T15:24:38.892Z,1.35
2023-01-21T15:27:25.059Z,1.40
2023-01-21T15:30:01.716Z,1.38
2023-01-21T15:32:46.127Z,1.58
2023-01-21T15:35:20.561Z,1.17
2023-01-21T15:37:54.855Z,1.40
2023-01-21T15:40:35.700Z,2.05
2023-01-21T15:43:21.311Z,1.10
2023-01-21T15:46:05.025Z,1.65
2023-01-21T15:48:50.122Z,1.30
2023-01-21T15:51:35.801Z,1.40
2023-01-21T15:54:31.979Z,1.50
2023-01-21T15:57:30.101Z,1.50
2023-01-21T16:00:21.193Z,1.40
2023-01-21T16:02:58.360Z,2.13
2023-01-21T16:05:38.205Z,1.48
2023-01-21T16:08:20.396Z,1.45
2023-01-21T16:10:53.509Z,1.30
2023-01-21T16:13:24.649Z,1.55
2023-01-21T16:16:14.787Z,1.30
2023-01-21T16:19:05.991Z,1.13
2023-01-21T16:21:41.266Z,1.48
2023-01-21T16:24:26.293Z,1.20
2023-01-21T16:26:59.814Z,1.55
2023-01-21T16:29:30.505Z,1.35
2023-01-21T16:32:03.756Z,1.33
2023-01-21T16:34:42.268Z,1.23
2023-01-21T16:37:19.119Z,1.33
2023-01-21T16:39:50.612Z,1.42
2023-01-21T16:42:42.125Z,1.05
2023-01-21T16:45:21.181Z,1.20
2023-01-21T16:48:00.237Z,2.03
2023-01-21T16:50:34.147Z,1.30
2023-01-21T16:53:09.841Z,1.40
2023-01-21T16:55:47.370Z,1.52
2023-01-21T16:58:34.147Z,1.30
2023-01-21T17:03:45.565Z,1.45
2023-01-21T17:06:18.455Z,1.42
2023-01-21T17:08:53.213Z,1.40
2023-01-21T17:11:25.145Z,1.27
2023-01-21T17:13:55.777Z,1.08
2023-01-21T17:16:30.233Z,1.40
2023-01-21T17:19:07.530Z,1.05
2023-01-21T17:21:56.399Z,1.10
2023-01-21T17:24:45.250Z,1.30
2023-01-21T17:27:21.449Z,1.85
2023-01-21T17:29:53.402Z,1.17
2023-01-21T17:32:34.961Z,1.00
2023-01-21T17:35:12.242Z,1.30
2023-01-21T17:38:01.446Z,1.02
2023-01-21T17:40:35.901Z,1.40
2023-01-21T17:43:33.621Z,1.33
2023-01-21T17:46:06.587Z,0.93
2023-01-21T17:48:40.686Z,1.40
2023-01-21T17:51:17.820Z,1.20
2023-01-21T17:54:22.077Z,1.35
2023-01-21T17:56:58.887Z,1.05
2023-01-21T17:59:39.044Z,1.33
2023-01-21T18:02:14.727Z,1.40
2023-01-21T18:04:46.063Z,1.50
2023-01-21T18:07:31.647Z,1.35
2023-01-21T18:10:04.442Z,1.45
2023-01-21T18:12:35.166Z,2.28
2023-01-21T18:15:05.697Z,3.70
2023-01-21T18:17:38.744Z,4.55
2023-01-21T18:20:25.124Z,3.85
2023-01-21T18:22:56.899Z,2.90
2023-01-21T18:25:29.441Z,2.88
2023-01-21T18:28:00.205Z,3.00
2023-01-21T18:30:30.618Z,3.58
2023-01-21T18:33:00.910Z,4.30
2023-01-21T18:35:32.380Z,2.22
2023-01-21T18:38:03.050Z,2.50
2023-01-21T18:40:33.082Z,5.10
2023-01-21T18:43:03.509Z,3.00
2023-01-21T18:45:34.467Z,4.22
2023-01-21T18:48:05.197Z,4.85
2023-01-21T18:50:35.466Z,4.90
2023-01-21T18:53:12.573Z,5.03
2023-01-21T18:55:53.395Z,4.35
2023-01-21T19:02:18.532Z,5.95
2023-01-21T19:04:49.451Z,4.88
2023-01-21T19:07:22.957Z,2.65
2023-01-21T19:09:53.099Z,1.45
2023-01-21T19:12:25.410Z,2.45
2023-01-21T19:14:55.633Z,1.60
2023-01-21T19:17:31.618Z,1.58
2023-01-21T19:20:03.251Z,0.75
2023-01-21T19:22:34.000Z,1.20
2023-01-21T19:25:05.377Z,1.35
2023-01-21T19:27:39.763Z,1.00
2023-01-21T19:30:20.137Z,0.65
2023-01-21T19:32:54.008Z,0.70
2023-01-21T19:35:32.353Z,0.60
2023-01-21T19:38:04.924Z,1.10
2023-01-21T19:40:35.764Z,0.65
2023-01-21T19:43:06.035Z,1.00
2023-01-21T19:57:59.291Z,1.55
2023-01-21T20:00:33.738Z,1.58
2023-01-21T20:03:04.428Z,1.77
2023-01-21T20:05:35.898Z,1.85
2023-01-21T20:08:08.705Z,3.20
2023-01-21T20:10:39.161Z,1.48
2023-01-21T20:13:18.967Z,2.35
2023-01-21T20:15:53.241Z,1.80
2023-01-21T20:18:31.556Z,1.60
2023-01-21T20:21:02.363Z,2.72
2023-01-21T20:23:33.757Z,3.60
2023-01-21T20:26:12.548Z,3.08
2023-01-21T20:28:48.152Z,2.55
2023-01-21T20:31:20.306Z,2.78
2023-01-21T20:33:51.331Z,2.95
2023-01-21T20:36:24.788Z,3.10
2023-01-21T20:38:57.798Z,2.78
2023-01-21T20:41:31.712Z,2.25
2023-01-21T20:44:04.641Z,2.80
2023-01-21T20:46:35.532Z,3.17
2023-01-21T20:49:17.344Z,2.50
2023-01-21T20:51:52.046Z,2.78
2023-01-21T20:54:23.491Z,2.65
2023-01-21T20:56:53.829Z,3.60
2023-01-21T20:59:24.666Z,2.55
2023-01-21T21:01:57.472Z,4.93
2023-01-21T21:04:29.258Z,4.55
2023-01-21T21:07:12.149Z,2.90
2023-01-21T21:09:44.046Z,3.42
2023-01-21T21:12:15.140Z,3.08
2023-01-21T21:14:45.138Z,2.83
2023-01-21T21:17:15.090Z,2.92
2023-01-21T21:19:46.532Z,3.00
2023-01-21T21:22:17.485Z,3.05
2023-01-21T21:24:48.347Z,2.42
2023-01-21T21:27:18.055Z,2.53
2023-01-21T21:29:49.637Z,3.00
2023-01-21T21:32:20.138Z,3.28
2023-01-21T21:34:52.776Z,3.25
2023-01-21T21:37:22.810Z,2.97
2023-01-21T21:39:52.810Z,2.53
2023-01-21T21:42:42.610Z,4.00
2023-01-21T21:45:13.427Z,2.53
2023-01-21T21:48:01.906Z,3.00
2023-01-21T21:50:32.281Z,2.95
2023-01-21T21:53:02.289Z,2.28
2023-01-21T21:55:36.296Z,3.65
2023-01-21T21:58:07.211Z,2.80
2023-01-21T22:00:37.390Z,2.80
2023-01-21T22:03:08.726Z,2.95
2023-01-21T22:05:39.949Z,2.67
2023-01-21T22:08:12.209Z,2.72
2023-01-21T22:10:42.359Z,3.33
2023-01-21T22:13:12.897Z,2.92
2023-01-21T22:15:43.857Z,3.15
2023-01-21T22:18:14.493Z,2.80
2023-01-21T22:20:44.429Z,3.60
2023-01-21T22:23:16.907Z,3.63
2023-01-21T22:25:47.382Z,3.45
2023-01-21T22:28:17.428Z,3.80
2023-01-21T22:30:47.675Z,3.80
2023-01-21T22:33:17.714Z,3.03
2023-01-21T22:35:48.048Z,4.22
2023-01-21T22:38:18.619Z,2.53
2023-01-21T22:40:55.134Z,2.88
2023-01-21T22:43:25.207Z,3.00
2023-01-21T22:46:00.359Z,3.42
2023-01-21T22:48:33.183Z,2.92
2023-01-21T22:51:03.778Z,2.60
2023-01-21T22:53:35.973Z,2.83
2023-01-21T22:56:08.757Z,3.28
2023-01-21T22:58:40.072Z,3.58
2023-01-21T23:01:21.301Z,3.10
2023-01-21T23:03:52.088Z,3.22
2023-01-21T23:06:23.697Z,2.80
2023-01-21T23:08:56.085Z,3.15
2023-01-21T23:11:26.574Z,2.53
2023-01-21T23:13:56.583Z,2.28
2023-01-21T23:16:27.633Z,3.05
2023-01-21T23:19:00.022Z,2.38
2023-01-21T23:21:30.762Z,2.42
2023-01-21T23:24:00.582Z,2.50
2023-01-21T23:26:32.926Z,2.95
2023-01-21T23:29:03.431Z,5.93
2023-01-21T23:31:33.388Z,2.15
2023-01-21T23:34:04.569Z,2.13
2023-01-21T23:36:36.465Z,2.22
2023-01-21T23:39:07.794Z,1.77
2023-01-21T23:41:37.643Z,2.22
2023-01-21T23:44:10.601Z,2.88
2023-01-21T23:46:42.778Z,2.10
2023-01-21T23:49:17.834Z,1.90
2023-01-21T23:54:19.375Z,2.30
2023-01-21T23:56:49.771Z,2.63
2023-01-21T23:59:21.394Z,1.92
